Sea Cloud — 9HOM2 — position and weather

sailwx.info

Track history (hours):
 
Tides and Currents Weather Stations Pressure Air Temp Water Temp Dewpoint Dewpoint Depression Visibility Wind Speed Wind Dir Waves Ship Positions

Sea Cloud

Ship's website: http://www.seacloud.com/en/the-ships/sea-cloud.html

Last reported at 2019-May-19 17:24 UTC. Time now 2019-May-20 02:37 UTC.
Position N 36°00' E 014°17'.

Length 110 m; draft 5.1 m.

Type: Ship. MMSI: 256084000.

Date/timePositionNaut miles runAvg speedWind from/ knotsBaromVisibWave heightAir tempDewpointWater temp
2019-May-19 17:24N 36°00' E 014°17'5 0.7
2019-May-19 09:51N 35°56' E 014°15'2 5.6
2019-May-19 09:30N 35°56' E 014°13'3 5.4
2019-May-19 08:57N 35°58' E 014°10'4 4.7
2019-May-19 08:09N 36°01' E 014°07'1 5.1
2019-May-19 08:00N 36°01' E 014°07'24 0.9
2019-May-18 04:08N 35°57' E 014°36'1 7.9
2019-May-18 03:57N 35°58' E 014°38'4 7.9
2019-May-18 03:29N 35°59' E 014°42'113 5.0
2019-May-17 04:38N 37°48' E 015°20'2 7.8
2019-May-17 04:24N 37°47' E 015°22'3 8.0
2019-May-17 04:01N 37°43' E 015°22'1 2.0
2019-May-17 03:26N 37°42' E 015°22'0 0.2
2019-May-17 02:04N 37°43' E 015°23'0 0.5
2019-May-17 01:24N 37°43' E 015°23'0 0.7
2019-May-17 00:59N 37°43' E 015°23'0 0.7
2019-May-17 00:31N 37°43' E 015°23'0 0.7
2019-May-17 00:00N 37°44' E 015°23'0 0.5
2019-May-16 23:09N 37°44' E 015°24'0 0.7
2019-May-16 23:00N 37°44' E 015°24'0 0.8
2019-May-16 22:31N 37°44' E 015°24'0 0.9
2019-May-16 22:00N 37°45' E 015°24'0 0.6
2019-May-16 21:31N 37°45' E 015°24'1 1.0
2019-May-16 20:57N 37°46' E 015°23'2 3.4
2019-May-16 20:25N 37°47' E 015°23'5 8.2
2019-May-16 19:47N 37°52' E 015°25'2 8.7
2019-May-16 19:31N 37°54' E 015°27'4 8.6
2019-May-16 19:00N 37°59' E 015°29'5 9.1
2019-May-16 18:31N 38°03' E 015°31'5 8.7
2019-May-16 17:59N 38°07' E 015°34'4 7.8
2019-May-16 17:31N 38°10' E 015°35'5 9.5
2019-May-16 17:01N 38°15' E 015°37'4 7.6
2019-May-16 16:31N 38°17' E 015°41'5 8.8
2019-May-16 16:00N 38°21' E 015°38'4 7.9
2019-May-16 15:30N 38°23' E 015°34'4 8.2
2019-May-16 15:00N 38°24' E 015°28'3 5.6
2019-May-16 14:30N 38°24' E 015°25'2 5.0
2019-May-16 14:01N 38°25' E 015°22'3 5.2
2019-May-16 13:30N 38°25' E 015°18'3 5.6
2019-May-16 13:01N 38°26' E 015°15'4 7.9
2019-May-16 12:31N 38°26' E 015°10'4 8.0
2019-May-16 12:00N 38°27' E 015°05'4 7.9
2019-May-16 11:30N 38°28' E 015°00'2 3.8
2019-May-16 11:00N 38°28' E 014°58'0 0.0
2019-May-16 10:21N 38°28' E 014°58'0 0.0
2019-May-16 09:54N 38°28' E 014°58'0 0.1
2019-May-16 09:24N 38°28' E 014°58'0 0.0
2019-May-16 08:51N 38°28' E 014°58'0 0.0
2019-May-16 08:21N 38°28' E 014°58'0 0.0
2019-May-16 07:57N 38°28' E 014°58'0 0.0
2019-May-16 07:30N 38°28' E 014°58'0 0.0
2019-May-16 07:00N 38°28' E 014°58'0 0.0
2019-May-16 06:30N 38°28' E 014°58'0 0.1
2019-May-16 06:00N 38°28' E 014°58'1 2.0
2019-May-16 05:30N 38°28' E 014°59'3 5.9
2019-May-16 05:00N 38°31' E 014°60'4 7.8
2019-May-16 04:29N 38°35' E 014°60'114 3.2
2019-May-14 16:29N 40°27' E 014°38'5 9.6
2019-May-14 16:00N 40°29' E 014°32'5 9.4
2019-May-14 15:30N 40°31' E 014°26'3 5.6
2019-May-14 15:00N 40°32' E 014°30'0 0.6
2019-May-14 14:30N 40°32' E 014°30'0 0.8
2019-May-14 14:00N 40°32' E 014°30'3 6.8
2019-May-14 13:30N 40°34' E 014°34'1 1.3
2019-May-14 13:00N 40°35' E 014°34'0 0.7
2019-May-14 12:30N 40°35' E 014°34'2 0.3
2019-May-14 05:19N 40°37' E 014°36'2 6.8
2019-May-14 05:00N 40°35' E 014°34'4 7.3
2019-May-14 04:30N 40°32' E 014°30'3 7.0
2019-May-14 04:00N 40°30' E 014°27'0 0.5
2019-May-14 03:31N 40°30' E 014°27'0 0.2
2019-May-14 03:00N 40°30' E 014°27'0 0.1
2019-May-14 02:30N 40°30' E 014°27'0 0.4
2019-May-14 02:00N 40°30' E 014°28'0 0.6
2019-May-14 01:30N 40°29' E 014°28'0 0.7
2019-May-14 01:00N 40°29' E 014°28'0 0.7
2019-May-14 00:30N 40°29' E 014°29'0 0.6
2019-May-14 00:00N 40°29' E 014°29'0 0.7
2019-May-13 23:30N 40°29' E 014°30'0 0.7
2019-May-13 23:00N 40°29' E 014°30'0 0.5
2019-May-13 22:30N 40°29' E 014°30'0 0.2
2019-May-13 22:00N 40°29' E 014°30'4 7.6
2019-May-13 21:30N 40°25' E 014°31'3 5.9
2019-May-13 21:00N 40°22' E 014°30'3 6.9
2019-May-13 20:30N 40°24' E 014°26'4 7.0
2019-May-13 20:00N 40°26' E 014°22'4 7.1
2019-May-13 19:30N 40°27' E 014°18'4 7.5
2019-May-13 19:00N 40°29' E 014°14'4 7.1
2019-May-13 18:23N 40°33' E 014°10'2 5.8
2019-May-13 18:00N 40°34' E 014°12'2 4.4
2019-May-13 17:30N 40°34' E 014°14'0 0.0
2019-May-13 16:59N 40°34' E 014°14'0 0.0
2019-May-13 16:29N 40°34' E 014°14'0 0.0
2019-May-13 15:59N 40°34' E 014°15'0 0.0
2019-May-13 15:05N 40°34' E 014°15'0 0.1
2019-May-13 14:53N 40°34' E 014°14'0 0.0
2019-May-13 14:29N 40°34' E 014°15'0 0.0
2019-May-13 13:59N 40°34' E 014°15'0 0.0
2019-May-13 13:29N 40°34' E 014°15'0 0.0
2019-May-13 12:59N 40°34' E 014°15'1 2.4
2019-May-13 12:30N 40°35' E 014°15'4 8.9
2019-May-13 12:00N 40°38' E 014°19'3 6.4
2019-May-13 11:30N 40°38' E 014°23'0 0.1
2019-May-13 10:53N 40°38' E 014°23'0 0.0
2019-May-13 10:29N 40°38' E 014°23'0 0.2
2019-May-13 09:53N 40°38' E 014°23'0 0.1
2019-May-13 09:25N 40°38' E 014°23'0 0.0
2019-May-13 08:59N 40°38' E 014°23'0 0.0
2019-May-13 08:23N 40°38' E 014°23'0 0.1
2019-May-13 07:52N 40°38' E 014°23'0 0.1
2019-May-13 07:29N 40°38' E 014°23'0 0.0
2019-May-13 06:59N 40°38' E 014°23'0 0.0
2019-May-13 06:28N 40°38' E 014°23'0 0.0
2019-May-13 05:56N 40°38' E 014°23'0 0.0
2019-May-13 05:29N 40°38' E 014°23'0 0.0
2019-May-13 04:55N 40°38' E 014°23'0 0.1
2019-May-13 04:28N 40°38' E 014°23'0 0.1
2019-May-13 03:59N 40°38' E 014°23'0 0.0
2019-May-13 03:29N 40°38' E 014°23'0 0.0
2019-May-13 02:58N 40°38' E 014°23'0 0.0
2019-May-13 02:29N 40°38' E 014°23'0 0.0
2019-May-13 01:59N 40°38' E 014°23'0 0.0
2019-May-13 01:28N 40°38' E 014°23'0 0.0
2019-May-13 00:59N 40°38' E 014°23'0 0.0
2019-May-13 00:29N 40°38' E 014°23'0 0.0
2019-May-12 23:59N 40°38' E 014°23'0 0.1
2019-May-12 23:29N 40°38' E 014°23'0 0.1
2019-May-12 22:59N 40°38' E 014°23'0 0.1
2019-May-12 22:23N 40°38' E 014°23'0 0.1
2019-May-12 21:58N 40°38' E 014°23'0 0.1
2019-May-12 21:19N 40°38' E 014°23'0 0.0
2019-May-12 21:00N 40°38' E 014°23'3 6.1
2019-May-12 20:30N 40°39' E 014°19'510.5
2019-May-12 20:00N 40°38' E 014°12'510.3
2019-May-12 19:30N 40°37' E 014°05'510.2
2019-May-12 19:00N 40°37' E 013°59'1 1.5
2019-May-12 18:30N 40°36' E 013°60'2 3.4
2019-May-12 18:00N 40°34' E 013°60'510.1
2019-May-12 17:30N 40°33' E 013°53'510.1
2019-May-12 17:00N 40°32' E 013°47'7 9.7
2019-May-12 16:17N 40°30' E 013°38'2 8.1
2019-May-12 16:00N 40°33' E 013°39'4 8.1
2019-May-12 15:30N 40°36' E 013°41'3 5.3
2019-May-12 15:00N 40°39' E 013°41'2 3.9
2019-May-12 14:29N 40°40' E 013°38'3 4.4
2019-May-12 13:55N 40°40' E 013°35'166 4.4
2019-May-10 23:45N 41°36' E 010°08'310.0
2019-May-10 23:29N 41°37' E 010°11'  
Track history (hours):
 
Tides and Currents Weather Stations Pressure Air Temp Water Temp Dewpoint Dewpoint Depression Visibility Wind Speed Wind Dir Waves Ship Positions

Sea Cloud

Ship's website: http://www.seacloud.com/en/the-ships/sea-cloud.html

Last reported at 2019-May-19 17:24 UTC. Time now 2019-May-20 02:37 UTC.
Position N 36°00' E 014°17'.

Length 110 m; draft 5.1 m.

Type: Ship. MMSI: 256084000.

Date/timePositionNaut miles runAvg speedWind from/ knotsBaromVisibWave heightAir tempDewpointWater temp
2019-May-19 17:24N 36°00' E 014°17'5 0.7
2019-May-19 09:51N 35°56' E 014°15'2 5.6
2019-May-19 09:30N 35°56' E 014°13'3 5.4
2019-May-19 08:57N 35°58' E 014°10'4 4.7
2019-May-19 08:09N 36°01' E 014°07'1 5.1
2019-May-19 08:00N 36°01' E 014°07'24 0.9
2019-May-18 04:08N 35°57' E 014°36'1 7.9
2019-May-18 03:57N 35°58' E 014°38'4 7.9
2019-May-18 03:29N 35°59' E 014°42'113 5.0
2019-May-17 04:38N 37°48' E 015°20'2 7.8
2019-May-17 04:24N 37°47' E 015°22'3 8.0
2019-May-17 04:01N 37°43' E 015°22'1 2.0
2019-May-17 03:26N 37°42' E 015°22'0 0.2
2019-May-17 02:04N 37°43' E 015°23'0 0.5
2019-May-17 01:24N 37°43' E 015°23'0 0.7
2019-May-17 00:59N 37°43' E 015°23'0 0.7
2019-May-17 00:31N 37°43' E 015°23'0 0.7
2019-May-17 00:00N 37°44' E 015°23'0 0.5
2019-May-16 23:09N 37°44' E 015°24'0 0.7
2019-May-16 23:00N 37°44' E 015°24'0 0.8
2019-May-16 22:31N 37°44' E 015°24'0 0.9
2019-May-16 22:00N 37°45' E 015°24'0 0.6
2019-May-16 21:31N 37°45' E 015°24'1 1.0
2019-May-16 20:57N 37°46' E 015°23'2 3.4
2019-May-16 20:25N 37°47' E 015°23'5 8.2
2019-May-16 19:47N 37°52' E 015°25'2 8.7
2019-May-16 19:31N 37°54' E 015°27'4 8.6
2019-May-16 19:00N 37°59' E 015°29'5 9.1
2019-May-16 18:31N 38°03' E 015°31'5 8.7
2019-May-16 17:59N 38°07' E 015°34'4 7.8
2019-May-16 17:31N 38°10' E 015°35'5 9.5
2019-May-16 17:01N 38°15' E 015°37'4 7.6
2019-May-16 16:31N 38°17' E 015°41'5 8.8
2019-May-16 16:00N 38°21' E 015°38'4 7.9
2019-May-16 15:30N 38°23' E 015°34'4 8.2
2019-May-16 15:00N 38°24' E 015°28'3 5.6
2019-May-16 14:30N 38°24' E 015°25'2 5.0
2019-May-16 14:01N 38°25' E 015°22'3 5.2
2019-May-16 13:30N 38°25' E 015°18'3 5.6
2019-May-16 13:01N 38°26' E 015°15'4 7.9
2019-May-16 12:31N 38°26' E 015°10'4 8.0
2019-May-16 12:00N 38°27' E 015°05'4 7.9
2019-May-16 11:30N 38°28' E 015°00'2 3.8
2019-May-16 11:00N 38°28' E 014°58'0 0.0
2019-May-16 10:21N 38°28' E 014°58'0 0.0
2019-May-16 09:54N 38°28' E 014°58'0 0.1
2019-May-16 09:24N 38°28' E 014°58'0 0.0
2019-May-16 08:51N 38°28' E 014°58'0 0.0
2019-May-16 08:21N 38°28' E 014°58'0 0.0
2019-May-16 07:57N 38°28' E 014°58'0 0.0
2019-May-16 07:30N 38°28' E 014°58'0 0.0
2019-May-16 07:00N 38°28' E 014°58'0 0.0
2019-May-16 06:30N 38°28' E 014°58'0 0.1
2019-May-16 06:00N 38°28' E 014°58'1 2.0
2019-May-16 05:30N 38°28' E 014°59'3 5.9
2019-May-16 05:00N 38°31' E 014°60'4 7.8
2019-May-16 04:29N 38°35' E 014°60'114 3.2
2019-May-14 16:29N 40°27' E 014°38'5 9.6
2019-May-14 16:00N 40°29' E 014°32'5 9.4
2019-May-14 15:30N 40°31' E 014°26'3 5.6
2019-May-14 15:00N 40°32' E 014°30'0 0.6
2019-May-14 14:30N 40°32' E 014°30'0 0.8
2019-May-14 14:00N 40°32' E 014°30'3 6.8
2019-May-14 13:30N 40°34' E 014°34'1 1.3
2019-May-14 13:00N 40°35' E 014°34'0 0.7
2019-May-14 12:30N 40°35' E 014°34'2 0.3
2019-May-14 05:19N 40°37' E 014°36'2 6.8
2019-May-14 05:00N 40°35' E 014°34'4 7.3
2019-May-14 04:30N 40°32' E 014°30'3 7.0
2019-May-14 04:00N 40°30' E 014°27'0 0.5
2019-May-14 03:31N 40°30' E 014°27'0 0.2
2019-May-14 03:00N 40°30' E 014°27'0 0.1
2019-May-14 02:30N 40°30' E 014°27'0 0.4
2019-May-14 02:00N 40°30' E 014°28'0 0.6
2019-May-14 01:30N 40°29' E 014°28'0 0.7
2019-May-14 01:00N 40°29' E 014°28'0 0.7
2019-May-14 00:30N 40°29' E 014°29'0 0.6
2019-May-14 00:00N 40°29' E 014°29'0 0.7
2019-May-13 23:30N 40°29' E 014°30'0 0.7
2019-May-13 23:00N 40°29' E 014°30'0 0.5
2019-May-13 22:30N 40°29' E 014°30'0 0.2
2019-May-13 22:00N 40°29' E 014°30'4 7.6
2019-May-13 21:30N 40°25' E 014°31'3 5.9
2019-May-13 21:00N 40°22' E 014°30'3 6.9
2019-May-13 20:30N 40°24' E 014°26'4 7.0
2019-May-13 20:00N 40°26' E 014°22'4 7.1
2019-May-13 19:30N 40°27' E 014°18'4 7.5
2019-May-13 19:00N 40°29' E 014°14'4 7.1
2019-May-13 18:23N 40°33' E 014°10'2 5.8
2019-May-13 18:00N 40°34' E 014°12'2 4.4
2019-May-13 17:30N 40°34' E 014°14'0 0.0
2019-May-13 16:59N 40°34' E 014°14'0 0.0
2019-May-13 16:29N 40°34' E 014°14'0 0.0
2019-May-13 15:59N 40°34' E 014°15'0 0.0
2019-May-13 15:05N 40°34' E 014°15'0 0.1
2019-May-13 14:53N 40°34' E 014°14'0 0.0
2019-May-13 14:29N 40°34' E 014°15'0 0.0
2019-May-13 13:59N 40°34' E 014°15'0 0.0
2019-May-13 13:29N 40°34' E 014°15'0 0.0
2019-May-13 12:59N 40°34' E 014°15'1 2.4
2019-May-13 12:30N 40°35' E 014°15'4 8.9
2019-May-13 12:00N 40°38' E 014°19'3 6.4
2019-May-13 11:30N 40°38' E 014°23'0 0.1
2019-May-13 10:53N 40°38' E 014°23'0 0.0
2019-May-13 10:29N 40°38' E 014°23'0 0.2
2019-May-13 09:53N 40°38' E 014°23'0 0.1
2019-May-13 09:25N 40°38' E 014°23'0 0.0
2019-May-13 08:59N 40°38' E 014°23'0 0.0
2019-May-13 08:23N 40°38' E 014°23'0 0.1
2019-May-13 07:52N 40°38' E 014°23'0 0.1
2019-May-13 07:29N 40°38' E 014°23'0 0.0
2019-May-13 06:59N 40°38' E 014°23'0 0.0
2019-May-13 06:28N 40°38' E 014°23'0 0.0
2019-May-13 05:56N 40°38' E 014°23'0 0.0
2019-May-13 05:29N 40°38' E 014°23'0 0.0
2019-May-13 04:55N 40°38' E 014°23'0 0.1
2019-May-13 04:28N 40°38' E 014°23'0 0.1
2019-May-13 03:59N 40°38' E 014°23'0 0.0
2019-May-13 03:29N 40°38' E 014°23'0 0.0
2019-May-13 02:58N 40°38' E 014°23'0 0.0
2019-May-13 02:29N 40°38' E 014°23'0 0.0
2019-May-13 01:59N 40°38' E 014°23'0 0.0
2019-May-13 01:28N 40°38' E 014°23'0 0.0
2019-May-13 00:59N 40°38' E 014°23'0 0.0
2019-May-13 00:29N 40°38' E 014°23'0 0.0
2019-May-12 23:59N 40°38' E 014°23'0 0.1
2019-May-12 23:29N 40°38' E 014°23'0 0.1
2019-May-12 22:59N 40°38' E 014°23'0 0.1
2019-May-12 22:23N 40°38' E 014°23'0 0.1
2019-May-12 21:58N 40°38' E 014°23'0 0.1
2019-May-12 21:19N 40°38' E 014°23'0 0.0
2019-May-12 21:00N 40°38' E 014°23'3 6.1
2019-May-12 20:30N 40°39' E 014°19'510.5
2019-May-12 20:00N 40°38' E 014°12'510.3
2019-May-12 19:30N 40°37' E 014°05'510.2
2019-May-12 19:00N 40°37' E 013°59'1 1.5
2019-May-12 18:30N 40°36' E 013°60'2 3.4
2019-May-12 18:00N 40°34' E 013°60'510.1
2019-May-12 17:30N 40°33' E 013°53'510.1
2019-May-12 17:00N 40°32' E 013°47'7 9.7
2019-May-12 16:17N 40°30' E 013°38'2 8.1
2019-May-12 16:00N 40°33' E 013°39'4 8.1
2019-May-12 15:30N 40°36' E 013°41'3 5.3
2019-May-12 15:00N 40°39' E 013°41'2 3.9
2019-May-12 14:29N 40°40' E 013°38'3 4.4
2019-May-12 13:55N 40°40' E 013°35'166 4.4
2019-May-10 23:45N 41°36' E 010°08'310.0
2019-May-10 23:29N 41°37' E 010°11'  

Dump ship's entire track history